sensor_id;sensor_type;location;lat;lon;timestamp;temperature;humidity
3758;DHT22;1894;51.038;13.692;2022-12-11T00:00:27;0.70;99.90
3758;DHT22;1894;51.038;13.692;2022-12-11T00:02:54;0.60;99.90
3758;DHT22;1894;51.038;13.692;2022-12-11T00:05:22;0.60;99.90
3758;DHT22;1894;51.038;13.692;2022-12-11T00:07:49;0.60;99.90
3758;DHT22;1894;51.038;13.692;2022-12-11T00:10:18;0.60;99.90
3758;DHT22;1894;51.038;13.692;2022-12-11T00:12:45;0.70;99.90
3758;DHT22;1894;51.038;13.692;2022-12-11T00:15:12;0.70;99.90
3758;DHT22;1894;51.038;13.692;2022-12-11T00:17:39;0.60;99.90
3758;DHT22;1894;51.038;13.692;2022-12-11T00:20:07;0.50;99.90
3758;DHT22;1894;51.038;13.692;2022-12-11T00:22:34;0.50;99.90
3758;DHT22;1894;51.038;13.692;2022-12-11T00:25:02;0.50;99.90
3758;DHT22;1894;51.038;13.692;2022-12-11T00:27:29;0.50;99.90
3758;DHT22;1894;51.038;13.692;2022-12-11T00:29:58;0.50;99.90
3758;DHT22;1894;51.038;13.692;2022-12-11T00:32:25;0.50;99.90
3758;DHT22;1894;51.038;13.692;2022-12-11T00:34:54;0.50;99.90
3758;DHT22;1894;51.038;13.692;2022-12-11T00:37:21;0.40;99.90
3758;DHT22;1894;51.038;13.692;2022-12-11T00:39:48;0.40;99.90
3758;DHT22;1894;51.038;13.692;2022-12-11T00:42:15;0.40;99.90
3758;DHT22;1894;51.038;13.692;2022-12-11T00:44:42;0.40;99.90
3758;DHT22;1894;51.038;13.692;2022-12-11T00:47:09;0.50;99.90
3758;DHT22;1894;51.038;13.692;2022-12-11T00:49:36;0.50;99.90
3758;DHT22;1894;51.038;13.692;2022-12-11T00:52:04;0.50;99.90
3758;DHT22;1894;51.038;13.692;2022-12-11T00:54:31;0.50;99.90
3758;DHT22;1894;51.038;13.692;2022-12-11T00:56:59;0.50;99.90
3758;DHT22;1894;51.038;13.692;2022-12-11T00:59:27;0.40;99.90
3758;DHT22;1894;51.038;13.692;2022-12-11T01:01:55;0.40;99.90
3758;DHT22;1894;51.038;13.692;2022-12-11T01:04:22;0.30;99.90
3758;DHT22;1894;51.038;13.692;2022-12-11T01:06:49;0.30;99.90
3758;DHT22;1894;51.038;13.692;2022-12-11T01:09:16;0.20;99.90
3758;DHT22;1894;51.038;13.692;2022-12-11T01:12:02;0.20;99.90
3758;DHT22;1894;51.038;13.692;2022-12-11T01:14:29;0.30;99.90
3758;DHT22;1894;51.038;13.692;2022-12-11T01:16:56;0.30;99.90
3758;DHT22;1894;51.038;13.692;2022-12-11T01:19:24;0.40;99.90
3758;DHT22;1894;51.038;13.692;2022-12-11T01:21:51;0.30;99.90
3758;DHT22;1894;51.038;13.692;2022-12-11T01:24:18;0.30;99.90
3758;DHT22;1894;51.038;13.692;2022-12-11T01:26:45;0.30;99.90
3758;DHT22;1894;51.038;13.692;2022-12-11T01:29:12;0.30;99.90
3758;DHT22;1894;51.038;13.692;2022-12-11T01:31:39;0.30;99.90
3758;DHT22;1894;51.038;13.692;2022-12-11T01:34:07;0.30;99.90
3758;DHT22;1894;51.038;13.692;2022-12-11T01:36:34;0.30;99.90
3758;DHT22;1894;51.038;13.692;2022-12-11T01:39:01;0.40;99.90
3758;DHT22;1894;51.038;13.692;2022-12-11T01:41:28;0.40;99.90
3758;DHT22;1894;51.038;13.692;2022-12-11T01:46:28;0.40;99.90
3758;DHT22;1894;51.038;13.692;2022-12-11T01:48:57;0.30;99.90
3758;DHT22;1894;51.038;13.692;2022-12-11T01:51:25;0.30;99.90
3758;DHT22;1894;51.038;13.692;2022-12-11T01:53:58;0.20;99.90
3758;DHT22;1894;51.038;13.692;2022-12-11T01:56:29;0.20;99.90
3758;DHT22;1894;51.038;13.692;2022-12-11T01:59:01;0.20;99.90
3758;DHT22;1894;51.038;13.692;2022-12-11T02:01:40;0.10;99.90
3758;DHT22;1894;51.038;13.692;2022-12-11T02:04:09;0.20;99.90
3758;DHT22;1894;51.038;13.692;2022-12-11T02:06:42;0.20;99.90
3758;DHT22;1894;51.038;13.692;2022-12-11T02:09:38;0.20;99.90
3758;DHT22;1894;51.038;13.692;2022-12-11T02:12:24;0.20;99.90
3758;DHT22;1894;51.038;13.692;2022-12-11T02:20:33;0.10;99.90
3758;DHT22;1894;51.038;13.692;2022-12-11T02:29:02;0.20;99.90
3758;DHT22;1894;51.038;13.692;2022-12-11T02:31:38;0.00;99.90
3758;DHT22;1894;51.038;13.692;2022-12-11T02:36:58;0.10;99.90
3758;DHT22;1894;51.038;13.692;2022-12-11T02:39:31;0.10;99.90
3758;DHT22;1894;51.038;13.692;2022-12-11T02:42:00;-0.10;99.90
3758;DHT22;1894;51.038;13.692;2022-12-11T02:44:32;-0.10;99.90
3758;DHT22;1894;51.038;13.692;2022-12-11T02:47:10;-0.10;99.90
3758;DHT22;1894;51.038;13.692;2022-12-11T02:49:41;0.00;99.90
3758;DHT22;1894;51.038;13.692;2022-12-11T02:52:11;0.00;99.90
3758;DHT22;1894;51.038;13.692;2022-12-11T02:54:42;0.00;99.90
3758;DHT22;1894;51.038;13.692;2022-12-11T02:57:32;0.00;99.90
3758;DHT22;1894;51.038;13.692;2022-12-11T03:00:05;0.10;99.90
3758;DHT22;1894;51.038;13.692;2022-12-11T03:02:35;0.20;99.90
3758;DHT22;1894;51.038;13.692;2022-12-11T03:05:04;0.20;99.90
3758;DHT22;1894;51.038;13.692;2022-12-11T03:07:34;0.20;99.90
3758;DHT22;1894;51.038;13.692;2022-12-11T03:10:05;0.20;99.90
3758;DHT22;1894;51.038;13.692;2022-12-11T03:12:38;0.20;99.90
3758;DHT22;1894;51.038;13.692;2022-12-11T03:15:10;0.20;99.90
3758;DHT22;1894;51.038;13.692;2022-12-11T03:17:45;0.20;99.90
3758;DHT22;1894;51.038;13.692;2022-12-11T03:21:05;0.00;99.90
3758;DHT22;1894;51.038;13.692;2022-12-11T03:23:41;0.00;99.90
3758;DHT22;1894;51.038;13.692;2022-12-11T03:26:14;-0.10;99.90
3758;DHT22;1894;51.038;13.692;2022-12-11T03:28:52;-0.20;99.90
3758;DHT22;1894;51.038;13.692;2022-12-11T03:31:38;-0.20;99.90
3758;DHT22;1894;51.038;13.692;2022-12-11T03:34:15;-0.30;99.90
3758;DHT22;1894;51.038;13.692;2022-12-11T03:36:46;-0.20;99.90
3758;DHT22;1894;51.038;13.692;2022-12-11T03:39:46;-0.10;99.90
3758;DHT22;1894;51.038;13.692;2022-12-11T03:42:18;-0.10;99.90
3758;DHT22;1894;51.038;13.692;2022-12-11T03:44:51;-0.20;99.90
3758;DHT22;1894;51.038;13.692;2022-12-11T03:47:22;-0.30;99.90
3758;DHT22;1894;51.038;13.692;2022-12-11T03:49:52;-0.30;99.90
3758;DHT22;1894;51.038;13.692;2022-12-11T03:52:22;-0.50;99.90
3758;DHT22;1894;51.038;13.692;2022-12-11T03:54:54;-0.50;99.90
3758;DHT22;1894;51.038;13.692;2022-12-11T03:57:28;-0.40;99.90
3758;DHT22;1894;51.038;13.692;2022-12-11T03:59:57;-0.40;99.90
3758;DHT22;1894;51.038;13.692;2022-12-11T04:02:24;-0.30;99.90
3758;DHT22;1894;51.038;13.692;2022-12-11T04:04:52;-0.30;99.90
3758;DHT22;1894;51.038;13.692;2022-12-11T04:07:19;-0.30;99.90
3758;DHT22;1894;51.038;13.692;2022-12-11T04:09:46;-0.30;99.90
3758;DHT22;1894;51.038;13.692;2022-12-11T04:12:13;-0.30;99.90
3758;DHT22;1894;51.038;13.692;2022-12-11T04:14:40;-0.20;99.90
3758;DHT22;1894;51.038;13.692;2022-12-11T04:17:26;-0.40;99.90
3758;DHT22;1894;51.038;13.692;2022-12-11T04:20:13;-0.40;99.90
3758;DHT22;1894;51.038;13.692;2022-12-11T04:22:58;-0.30;99.90
3758;DHT22;1894;51.038;13.692;2022-12-11T04:25:44;-0.40;99.90
3758;DHT22;1894;51.038;13.692;2022-12-11T04:28:11;-0.40;99.90
3758;DHT22;1894;51.038;13.692;2022-12-11T04:30:38;-0.40;99.90
3758;DHT22;1894;51.038;13.692;2022-12-11T04:33:06;-0.40;99.90
3758;DHT22;1894;51.038;13.692;2022-12-11T04:35:33;-0.40;99.90
3758;DHT22;1894;51.038;13.692;2022-12-11T04:38:00;-0.40;99.90
3758;DHT22;1894;51.038;13.692;2022-12-11T04:40:27;-0.40;99.90
3758;DHT22;1894;51.038;13.692;2022-12-11T04:42:54;-0.30;99.90
3758;DHT22;1894;51.038;13.692;2022-12-11T04:45:21;-0.30;99.90
3758;DHT22;1894;51.038;13.692;2022-12-11T04:47:48;-0.30;99.90
3758;DHT22;1894;51.038;13.692;2022-12-11T04:50:15;-0.30;99.90
3758;DHT22;1894;51.038;13.692;2022-12-11T04:52:43;-0.30;99.90
3758;DHT22;1894;51.038;13.692;2022-12-11T04:55:11;-0.30;99.90
3758;DHT22;1894;51.038;13.692;2022-12-11T04:57:39;-0.30;99.90
3758;DHT22;1894;51.038;13.692;2022-12-11T05:00:09;-0.30;99.90
3758;DHT22;1894;51.038;13.692;2022-12-11T05:02:38;-0.30;99.90
3758;DHT22;1894;51.038;13.692;2022-12-11T05:05:08;-0.60;99.90
3758;DHT22;1894;51.038;13.692;2022-12-11T05:07:38;-0.60;99.90
3758;DHT22;1894;51.038;13.692;2022-12-11T05:10:07;-0.70;99.90
3758;DHT22;1894;51.038;13.692;2022-12-11T05:12:34;-0.70;99.90
3758;DHT22;1894;51.038;13.692;2022-12-11T05:15:02;-0.60;99.90
3758;DHT22;1894;51.038;13.692;2022-12-11T05:17:29;-0.50;99.90
3758;DHT22;1894;51.038;13.692;2022-12-11T05:19:56;-0.40;99.90
3758;DHT22;1894;51.038;13.692;2022-12-11T05:22:23;-0.40;99.90
3758;DHT22;1894;51.038;13.692;2022-12-11T05:24:50;-0.50;99.90
3758;DHT22;1894;51.038;13.692;2022-12-11T05:27:17;-0.60;99.90
3758;DHT22;1894;51.038;13.692;2022-12-11T05:29:44;-0.60;99.90
3758;DHT22;1894;51.038;13.692;2022-12-11T05:32:11;-0.70;99.90
3758;DHT22;1894;51.038;13.692;2022-12-11T05:34:38;-0.90;99.90
3758;DHT22;1894;51.038;13.692;2022-12-11T05:37:06;-1.00;99.90
3758;DHT22;1894;51.038;13.692;2022-12-11T05:39:33;-0.90;99.90
3758;DHT22;1894;51.038;13.692;2022-12-11T05:42:00;-0.90;99.90
3758;DHT22;1894;51.038;13.692;2022-12-11T05:44:27;-0.90;99.90
3758;DHT22;1894;51.038;13.692;2022-12-11T05:46:54;-1.00;99.90
3758;DHT22;1894;51.038;13.692;2022-12-11T05:49:21;-1.20;99.90
3758;DHT22;1894;51.038;13.692;2022-12-11T05:51:56;-1.20;99.90
3758;DHT22;1894;51.038;13.692;2022-12-11T05:54:23;-1.20;99.90
3758;DHT22;1894;51.038;13.692;2022-12-11T05:56:50;-1.10;99.90
3758;DHT22;1894;51.038;13.692;2022-12-11T05:59:18;-1.10;99.90
3758;DHT22;1894;51.038;13.692;2022-12-11T06:01:45;-1.20;99.90
3758;DHT22;1894;51.038;13.692;2022-12-11T06:04:13;-1.20;99.90
3758;DHT22;1894;51.038;13.692;2022-12-11T06:06:40;-1.20;99.90
3758;DHT22;1894;51.038;13.692;2022-12-11T06:09:13;-1.20;99.90
3758;DHT22;1894;51.038;13.692;2022-12-11T06:11:41;-1.30;99.90
3758;DHT22;1894;51.038;13.692;2022-12-11T06:14:10;-1.20;99.90
3758;DHT22;1894;51.038;13.692;2022-12-11T06:16:37;-1.10;99.90
3758;DHT22;1894;51.038;13.692;2022-12-11T06:19:05;-1.00;99.90
3758;DHT22;1894;51.038;13.692;2022-12-11T06:21:32;-1.00;99.90
3758;DHT22;1894;51.038;13.692;2022-12-11T06:24:02;-1.20;99.90
3758;DHT22;1894;51.038;13.692;2022-12-11T06:26:29;-1.20;99.90
3758;DHT22;1894;51.038;13.692;2022-12-11T06:28:58;-1.30;99.90
3758;DHT22;1894;51.038;13.692;2022-12-11T06:31:25;-1.30;99.90
3758;DHT22;1894;51.038;13.692;2022-12-11T06:33:53;-1.40;99.90
3758;DHT22;1894;51.038;13.692;2022-12-11T06:36:22;-1.60;99.90
3758;DHT22;1894;51.038;13.692;2022-12-11T06:38:50;-1.70;99.90
3758;DHT22;1894;51.038;13.692;2022-12-11T06:41:17;-1.60;99.90
3758;DHT22;1894;51.038;13.692;2022-12-11T06:43:44;-1.60;99.90
3758;DHT22;1894;51.038;13.692;2022-12-11T06:46:17;-1.60;99.90
3758;DHT22;1894;51.038;13.692;2022-12-11T06:48:45;-1.70;99.90
3758;DHT22;1894;51.038;13.692;2022-12-11T06:51:18;-1.60;99.90
3758;DHT22;1894;51.038;13.692;2022-12-11T06:53:52;-1.60;99.90
3758;DHT22;1894;51.038;13.692;2022-12-11T06:56:21;-1.50;99.90
3758;DHT22;1894;51.038;13.692;2022-12-11T06:58:49;-1.60;99.90
3758;DHT22;1894;51.038;13.692;2022-12-11T07:01:18;-1.80;99.90
3758;DHT22;1894;51.038;13.692;2022-12-11T07:03:48;-1.80;99.90
3758;DHT22;1894;51.038;13.692;2022-12-11T07:06:15;-1.70;99.90
3758;DHT22;1894;51.038;13.692;2022-12-11T07:08:42;-1.80;99.90
3758;DHT22;1894;51.038;13.692;2022-12-11T07:11:12;-1.90;99.90
3758;DHT22;1894;51.038;13.692;2022-12-11T07:13:41;-1.90;99.90
3758;DHT22;1894;51.038;13.692;2022-12-11T07:16:10;-1.60;99.90
3758;DHT22;1894;51.038;13.692;2022-12-11T07:18:40;-1.50;99.90
3758;DHT22;1894;51.038;13.692;2022-12-11T07:21:19;-1.50;99.90
3758;DHT22;1894;51.038;13.692;2022-12-11T07:23:47;-1.60;99.90
3758;DHT22;1894;51.038;13.692;2022-12-11T07:26:17;-1.80;99.90
3758;DHT22;1894;51.038;13.692;2022-12-11T07:28:46;-1.80;99.90
3758;DHT22;1894;51.038;13.692;2022-12-11T07:31:17;-1.70;99.90
3758;DHT22;1894;51.038;13.692;2022-12-11T07:33:46;-1.90;99.90
3758;DHT22;1894;51.038;13.692;2022-12-11T07:36:14;-1.80;99.90
3758;DHT22;1894;51.038;13.692;2022-12-11T07:38:41;-1.90;99.90
3758;DHT22;1894;51.038;13.692;2022-12-11T07:41:11;-1.80;99.90
3758;DHT22;1894;51.038;13.692;2022-12-11T07:43:39;-1.70;99.90
3758;DHT22;1894;51.038;13.692;2022-12-11T07:46:11;-1.60;99.90
3758;DHT22;1894;51.038;13.692;2022-12-11T07:48:41;-1.60;99.90
3758;DHT22;1894;51.038;13.692;2022-12-11T07:51:20;-1.50;99.90
3758;DHT22;1894;51.038;13.692;2022-12-11T07:53:51;-1.60;99.90
3758;DHT22;1894;51.038;13.692;2022-12-11T07:56:18;-1.90;99.90
3758;DHT22;1894;51.038;13.692;2022-12-11T07:58:46;-2.00;99.90
3758;DHT22;1894;51.038;13.692;2022-12-11T08:01:20;-1.90;99.90
3758;DHT22;1894;51.038;13.692;2022-12-11T08:03:49;-1.90;99.90
3758;DHT22;1894;51.038;13.692;2022-12-11T08:06:17;-2.00;99.90
3758;DHT22;1894;51.038;13.692;2022-12-11T08:08:47;-2.10;99.90
3758;DHT22;1894;51.038;13.692;2022-12-11T08:11:14;-2.10;99.90
3758;DHT22;1894;51.038;13.692;2022-12-11T08:13:42;-2.00;99.90
3758;DHT22;1894;51.038;13.692;2022-12-11T08:16:12;-2.00;99.90
3758;DHT22;1894;51.038;13.692;2022-12-11T08:18:41;-1.80;99.90
3758;DHT22;1894;51.038;13.692;2022-12-11T08:21:28;-2.00;99.90
3758;DHT22;1894;51.038;13.692;2022-12-11T08:23:56;-2.00;99.90
3758;DHT22;1894;51.038;13.692;2022-12-11T08:26:25;-1.90;99.90
3758;DHT22;1894;51.038;13.692;2022-12-11T08:28:54;-1.80;99.90
3758;DHT22;1894;51.038;13.692;2022-12-11T08:31:22;-1.60;99.90
3758;DHT22;1894;51.038;13.692;2022-12-11T08:33:50;-1.60;99.90
3758;DHT22;1894;51.038;13.692;2022-12-11T08:36:19;-1.70;99.90
3758;DHT22;1894;51.038;13.692;2022-12-11T08:38:48;-1.60;99.90
3758;DHT22;1894;51.038;13.692;2022-12-11T08:41:19;-1.60;99.90
3758;DHT22;1894;51.038;13.692;2022-12-11T08:43:57;-1.60;99.90
3758;DHT22;1894;51.038;13.692;2022-12-11T08:46:28;-1.60;99.90
3758;DHT22;1894;51.038;13.692;2022-12-11T08:48:58;-1.50;99.90
3758;DHT22;1894;51.038;13.692;2022-12-11T08:51:27;-1.40;99.90
3758;DHT22;1894;51.038;13.692;2022-12-11T08:53:58;-1.30;99.90
3758;DHT22;1894;51.038;13.692;2022-12-11T08:56:27;-1.20;99.90
3758;DHT22;1894;51.038;13.692;2022-12-11T08:58:57;-1.20;99.90
3758;DHT22;1894;51.038;13.692;2022-12-11T09:01:26;-1.20;99.90
3758;DHT22;1894;51.038;13.692;2022-12-11T09:03:54;-1.20;99.90
3758;DHT22;1894;51.038;13.692;2022-12-11T09:06:24;-1.30;99.90
3758;DHT22;1894;51.038;13.692;2022-12-11T09:08:54;-1.10;99.90
3758;DHT22;1894;51.038;13.692;2022-12-11T09:11:24;-1.00;99.90
3758;DHT22;1894;51.038;13.692;2022-12-11T09:13:53;-1.00;99.90
3758;DHT22;1894;51.038;13.692;2022-12-11T09:16:23;-0.90;99.90
3758;DHT22;1894;51.038;13.692;2022-12-11T09:18:52;-0.70;99.90
3758;DHT22;1894;51.038;13.692;2022-12-11T09:21:24;-0.60;99.90
3758;DHT22;1894;51.038;13.692;2022-12-11T09:23:54;-0.80;99.90
3758;DHT22;1894;51.038;13.692;2022-12-11T09:26:24;-0.90;99.90
3758;DHT22;1894;51.038;13.692;2022-12-11T09:28:52;-0.80;99.90
3758;DHT22;1894;51.038;13.692;2022-12-11T09:31:23;-0.90;99.90
3758;DHT22;1894;51.038;13.692;2022-12-11T09:33:55;-1.00;99.90
3758;DHT22;1894;51.038;13.692;2022-12-11T09:36:23;-1.10;99.90
3758;DHT22;1894;51.038;13.692;2022-12-11T09:38:51;-1.10;99.90
3758;DHT22;1894;51.038;13.692;2022-12-11T09:41:31;-1.00;99.90
3758;DHT22;1894;51.038;13.692;2022-12-11T09:46:38;-0.90;99.90
3758;DHT22;1894;51.038;13.692;2022-12-11T09:49:17;-0.80;99.90
3758;DHT22;1894;51.038;13.692;2022-12-11T09:54:26;-0.70;99.90
3758;DHT22;1894;51.038;13.692;2022-12-11T09:57:13;-0.70;99.90
3758;DHT22;1894;51.038;13.692;2022-12-11T10:08:59;-0.80;99.90
3758;DHT22;1894;51.038;13.692;2022-12-11T10:17:27;-0.60;99.90
3758;DHT22;1894;51.038;13.692;2022-12-11T10:23:06;-0.30;99.90
3758;DHT22;1894;51.038;13.692;2022-12-11T10:25:40;0.00;99.90
3758;DHT22;1894;51.038;13.692;2022-12-11T10:28:16;0.20;99.90
3758;DHT22;1894;51.038;13.692;2022-12-11T10:33:48;0.30;99.90
3758;DHT22;1894;51.038;13.692;2022-12-11T10:36:34;0.40;99.90
3758;DHT22;1894;51.038;13.692;2022-12-11T10:39:13;0.50;99.90
3758;DHT22;1894;51.038;13.692;2022-12-11T10:41:43;0.60;99.90
3758;DHT22;1894;51.038;13.692;2022-12-11T10:44:20;0.40;99.90
3758;DHT22;1894;51.038;13.692;2022-12-11T10:47:10;0.40;99.90
3758;DHT22;1894;51.038;13.692;2022-12-11T10:49:59;0.50;99.90
3758;DHT22;1894;51.038;13.692;2022-12-11T10:52:41;0.50;99.90
3758;DHT22;1894;51.038;13.692;2022-12-11T10:55:21;0.40;99.90
3758;DHT22;1894;51.038;13.692;2022-12-11T10:57:58;0.60;99.90
3758;DHT22;1894;51.038;13.692;2022-12-11T11:00:38;0.20;99.90
3758;DHT22;1894;51.038;13.692;2022-12-11T11:03:22;-0.10;99.90
3758;DHT22;1894;51.038;13.692;2022-12-11T11:06:14;0.00;99.90
3758;DHT22;1894;51.038;13.692;2022-12-11T11:08:46;0.00;99.90
3758;DHT22;1894;51.038;13.692;2022-12-11T11:11:21;0.20;99.90
3758;DHT22;1894;51.038;13.692;2022-12-11T11:13:49;0.20;99.90
3758;DHT22;1894;51.038;13.692;2022-12-11T11:16:19;0.40;99.90
3758;DHT22;1894;51.038;13.692;2022-12-11T11:18:53;0.40;99.90
3758;DHT22;1894;51.038;13.692;2022-12-11T11:21:23;0.20;99.90
3758;DHT22;1894;51.038;13.692;2022-12-11T11:23:53;0.20;99.90
3758;DHT22;1894;51.038;13.692;2022-12-11T11:26:20;0.00;99.90
3758;DHT22;1894;51.038;13.692;2022-12-11T11:29:24;-0.20;99.90
3758;DHT22;1894;51.038;13.692;2022-12-11T11:32:18;-0.20;99.90
3758;DHT22;1894;51.038;13.692;2022-12-11T11:34:47;-0.30;99.90
3758;DHT22;1894;51.038;13.692;2022-12-11T11:37:30;-0.40;99.90
3758;DHT22;1894;51.038;13.692;2022-12-11T11:46:05;-0.30;99.90
3758;DHT22;1894;51.038;13.692;2022-12-11T11:58:04;-0.40;99.90
3758;DHT22;1894;51.038;13.692;2022-12-11T12:00:54;-0.60;99.90
3758;DHT22;1894;51.038;13.692;2022-12-11T12:03:22;-0.70;99.90
3758;DHT22;1894;51.038;13.692;2022-12-11T12:08:43;1.50;99.90
3758;DHT22;1894;51.038;13.692;2022-12-11T12:11:38;1.00;99.90
3758;DHT22;1894;51.038;13.692;2022-12-11T12:20:27;1.90;99.90
3758;DHT22;1894;51.038;13.692;2022-12-11T12:37:46;1.70;99.90
3758;DHT22;1894;51.038;13.692;2022-12-11T12:49:44;0.00;99.90
3758;DHT22;1894;51.038;13.692;2022-12-11T12:52:27;-0.60;99.90
3758;DHT22;1894;51.038;13.692;2022-12-11T12:55:00;-0.60;99.90
3758;DHT22;1894;51.038;13.692;2022-12-11T12:58:26;-0.30;99.90
3758;DHT22;1894;51.038;13.692;2022-12-11T13:03:58;-0.40;99.90
3758;DHT22;1894;51.038;13.692;2022-12-11T13:06:31;-0.20;99.90
3758;DHT22;1894;51.038;13.692;2022-12-11T13:11:44;0.10;99.90
3758;DHT22;1894;51.038;13.692;2022-12-11T13:16:45;-0.20;99.90
3758;DHT22;1894;51.038;13.692;2022-12-11T13:21:57;0.00;99.90
3758;DHT22;1894;51.038;13.692;2022-12-11T13:25:21;0.10;99.90
3758;DHT22;1894;51.038;13.692;2022-12-11T13:27:48;0.00;99.90
3758;DHT22;1894;51.038;13.692;2022-12-11T13:35:34;-0.70;99.90
3758;DHT22;1894;51.038;13.692;2022-12-11T13:38:16;-0.70;99.90
3758;DHT22;1894;51.038;13.692;2022-12-11T13:40:52;-0.60;99.90
3758;DHT22;1894;51.038;13.692;2022-12-11T13:43:28;-0.60;99.90
3758;DHT22;1894;51.038;13.692;2022-12-11T13:46:03;-0.60;99.90
3758;DHT22;1894;51.038;13.692;2022-12-11T13:48:37;-0.60;99.90
3758;DHT22;1894;51.038;13.692;2022-12-11T13:51:18;-0.60;99.90
3758;DHT22;1894;51.038;13.692;2022-12-11T13:53:47;-0.60;99.90
3758;DHT22;1894;51.038;13.692;2022-12-11T13:56:19;-0.90;99.90
3758;DHT22;1894;51.038;13.692;2022-12-11T13:58:48;-1.00;99.90
3758;DHT22;1894;51.038;13.692;2022-12-11T14:01:30;-1.10;99.90
3758;DHT22;1894;51.038;13.692;2022-12-11T14:04:09;-1.40;99.90
3758;DHT22;1894;51.038;13.692;2022-12-11T14:06:39;-1.30;99.90
3758;DHT22;1894;51.038;13.692;2022-12-11T14:09:07;-1.00;99.90
3758;DHT22;1894;51.038;13.692;2022-12-11T14:11:37;-1.00;99.90
3758;DHT22;1894;51.038;13.692;2022-12-11T14:14:19;-1.10;99.90
3758;DHT22;1894;51.038;13.692;2022-12-11T14:16:51;-1.10;99.90
3758;DHT22;1894;51.038;13.692;2022-12-11T14:19:20;-1.20;99.90
3758;DHT22;1894;51.038;13.692;2022-12-11T14:22:03;-1.30;99.90
3758;DHT22;1894;51.038;13.692;2022-12-11T14:24:32;-1.30;99.90
3758;DHT22;1894;51.038;13.692;2022-12-11T14:26:59;-1.50;99.90
3758;DHT22;1894;51.038;13.692;2022-12-11T14:29:29;-1.60;99.90
3758;DHT22;1894;51.038;13.692;2022-12-11T14:32:02;-1.60;99.90
3758;DHT22;1894;51.038;13.692;2022-12-11T14:34:38;-1.50;99.90
3758;DHT22;1894;51.038;13.692;2022-12-11T14:37:13;-1.50;99.90
3758;DHT22;1894;51.038;13.692;2022-12-11T14:39:59;-1.40;99.90
3758;DHT22;1894;51.038;13.692;2022-12-11T14:42:35;-1.60;99.90
3758;DHT22;1894;51.038;13.692;2022-12-11T14:48:24;-1.50;99.90
3758;DHT22;1894;51.038;13.692;2022-12-11T14:50:58;-1.60;99.90
3758;DHT22;1894;51.038;13.692;2022-12-11T14:53:35;-1.60;99.90
3758;DHT22;1894;51.038;13.692;2022-12-11T14:56:06;-1.50;99.90
3758;DHT22;1894;51.038;13.692;2022-12-11T14:58:42;-1.50;99.90
3758;DHT22;1894;51.038;13.692;2022-12-11T15:01:33;-1.50;99.90
3758;DHT22;1894;51.038;13.692;2022-12-11T15:04:28;-1.70;99.90
3758;DHT22;1894;51.038;13.692;2022-12-11T15:06:55;-1.80;99.90
3758;DHT22;1894;51.038;13.692;2022-12-11T15:12:16;-1.60;99.90
3758;DHT22;1894;51.038;13.692;2022-12-11T15:14:55;-1.80;99.90
3758;DHT22;1894;51.038;13.692;2022-12-11T15:17:25;-1.80;99.90
3758;DHT22;1894;51.038;13.692;2022-12-11T15:19:55;-1.90;99.90
3758;DHT22;1894;51.038;13.692;2022-12-11T15:22:33;-1.80;99.90
3758;DHT22;1894;51.038;13.692;2022-12-11T15:25:01;-1.70;99.90
3758;DHT22;1894;51.038;13.692;2022-12-11T15:27:33;-1.60;99.90
3758;DHT22;1894;51.038;13.692;2022-12-11T15:35:37;-1.50;99.90
3758;DHT22;1894;51.038;13.692;2022-12-11T15:38:05;-1.50;99.90
3758;DHT22;1894;51.038;13.692;2022-12-11T15:40:32;-1.80;99.90
3758;DHT22;1894;51.038;13.692;2022-12-11T15:43:01;-1.70;99.90
3758;DHT22;1894;51.038;13.692;2022-12-11T15:45:29;-1.90;99.90
3758;DHT22;1894;51.038;13.692;2022-12-11T15:47:56;-1.90;99.90
3758;DHT22;1894;51.038;13.692;2022-12-11T15:50:29;-1.90;99.90
3758;DHT22;1894;51.038;13.692;2022-12-11T15:52:57;-1.80;99.90
3758;DHT22;1894;51.038;13.692;2022-12-11T15:55:26;-1.80;99.90
3758;DHT22;1894;51.038;13.692;2022-12-11T15:58:00;-2.00;99.90
3758;DHT22;1894;51.038;13.692;2022-12-11T16:00:29;-2.10;99.90
3758;DHT22;1894;51.038;13.692;2022-12-11T16:02:56;-2.10;99.90
3758;DHT22;1894;51.038;13.692;2022-12-11T16:05:24;-2.00;99.90
3758;DHT22;1894;51.038;13.692;2022-12-11T16:07:52;-2.20;99.90
3758;DHT22;1894;51.038;13.692;2022-12-11T16:10:21;-2.00;99.90
3758;DHT22;1894;51.038;13.692;2022-12-11T16:12:48;-1.90;99.90
3758;DHT22;1894;51.038;13.692;2022-12-11T16:15:16;-1.80;99.90
3758;DHT22;1894;51.038;13.692;2022-12-11T16:17:50;-2.00;99.90
3758;DHT22;1894;51.038;13.692;2022-12-11T16:20:25;-1.90;99.90
3758;DHT22;1894;51.038;13.692;2022-12-11T16:22:52;-2.00;99.90
3758;DHT22;1894;51.038;13.692;2022-12-11T16:25:19;-2.10;99.90
3758;DHT22;1894;51.038;13.692;2022-12-11T16:27:46;-2.10;99.90
3758;DHT22;1894;51.038;13.692;2022-12-11T16:30:13;-1.90;99.90
3758;DHT22;1894;51.038;13.692;2022-12-11T16:32:42;-1.90;99.90
3758;DHT22;1894;51.038;13.692;2022-12-11T16:35:10;-1.90;99.90
3758;DHT22;1894;51.038;13.692;2022-12-11T16:37:37;-1.80;99.90
3758;DHT22;1894;51.038;13.692;2022-12-11T16:40:05;-1.90;99.90
3758;DHT22;1894;51.038;13.692;2022-12-11T16:42:33;-1.80;99.90
3758;DHT22;1894;51.038;13.692;2022-12-11T16:45:05;-1.90;99.90
3758;DHT22;1894;51.038;13.692;2022-12-11T16:47:52;-1.90;99.90
3758;DHT22;1894;51.038;13.692;2022-12-11T16:50:20;-1.90;99.90
3758;DHT22;1894;51.038;13.692;2022-12-11T16:52:49;-1.90;99.90
3758;DHT22;1894;51.038;13.692;2022-12-11T16:55:16;-2.00;99.90
3758;DHT22;1894;51.038;13.692;2022-12-11T16:57:47;-2.00;99.90
3758;DHT22;1894;51.038;13.692;2022-12-11T17:00:14;-2.00;99.90
3758;DHT22;1894;51.038;13.692;2022-12-11T17:02:42;-1.80;99.90
3758;DHT22;1894;51.038;13.692;2022-12-11T17:05:09;-1.90;99.90
3758;DHT22;1894;51.038;13.692;2022-12-11T17:07:37;-2.10;99.90
3758;DHT22;1894;51.038;13.692;2022-12-11T17:10:04;-2.00;99.90
3758;DHT22;1894;51.038;13.692;2022-12-11T17:12:32;-2.00;99.90
3758;DHT22;1894;51.038;13.692;2022-12-11T17:14:59;-2.10;99.90
3758;DHT22;1894;51.038;13.692;2022-12-11T17:17:26;-2.00;99.90
3758;DHT22;1894;51.038;13.692;2022-12-11T17:19:54;-2.00;99.90
3758;DHT22;1894;51.038;13.692;2022-12-11T17:22:21;-2.00;99.90
3758;DHT22;1894;51.038;13.692;2022-12-11T17:24:49;-2.00;99.90
3758;DHT22;1894;51.038;13.692;2022-12-11T17:27:16;-2.00;99.90
3758;DHT22;1894;51.038;13.692;2022-12-11T17:29:43;-2.00;99.90
3758;DHT22;1894;51.038;13.692;2022-12-11T17:32:10;-2.10;99.90
3758;DHT22;1894;51.038;13.692;2022-12-11T17:34:37;-2.00;99.90
3758;DHT22;1894;51.038;13.692;2022-12-11T17:37:05;-2.00;99.90
3758;DHT22;1894;51.038;13.692;2022-12-11T17:39:32;-1.90;99.90
3758;DHT22;1894;51.038;13.692;2022-12-11T17:41:59;-1.90;99.90
3758;DHT22;1894;51.038;13.692;2022-12-11T17:44:27;-1.90;99.90
3758;DHT22;1894;51.038;13.692;2022-12-11T17:46:57;-1.90;99.90
3758;DHT22;1894;51.038;13.692;2022-12-11T17:49:25;-2.00;99.90
3758;DHT22;1894;51.038;13.692;2022-12-11T17:51:52;-2.00;99.90
3758;DHT22;1894;51.038;13.692;2022-12-11T17:54:21;-2.10;99.90
3758;DHT22;1894;51.038;13.692;2022-12-11T17:56:50;-1.90;99.90
3758;DHT22;1894;51.038;13.692;2022-12-11T17:59:17;-2.00;99.90
3758;DHT22;1894;51.038;13.692;2022-12-11T18:01:44;-1.80;99.90
3758;DHT22;1894;51.038;13.692;2022-12-11T18:04:11;-1.80;99.90
3758;DHT22;1894;51.038;13.692;2022-12-11T18:06:39;-1.80;99.90
3758;DHT22;1894;51.038;13.692;2022-12-11T18:09:06;-1.80;99.90
3758;DHT22;1894;51.038;13.692;2022-12-11T18:11:33;-1.90;99.90
3758;DHT22;1894;51.038;13.692;2022-12-11T18:14:01;-1.80;99.90
3758;DHT22;1894;51.038;13.692;2022-12-11T18:16:35;-1.80;99.90